Aviation Digital Data Service (ADDS)

Output produced by TAFs form (0022 UTC 01 November 2014)
found at http://www.aviationweather.gov/adds/tafs/
 
KSBY 312341Z 0100/0124 36007KT P6SM OVC040 
     FM010400 01004KT P6SM BKN035 
     FM011000 36006KT 5SM -DZ BR BKN012 
     FM011500 36015KT 4SM -RA BR BKN009 
     FM011800 01019G27KT 4SM -RA BR BKN012